Estación Meteorológica Peña el Pijo (Robertgarden) [ 02/03/23 04:11:10 CET ]

Fecha Hora Presion(HPa) Temp (°C) Humedad % Rocio (°C) Viento ( m/s) Direccion Lluvia 1Hora(mm) Lluvia 24H(mm) LLuvia Total(mm)
2010-Feb-03 01:01:18 1012.200 -2.7 86 -4.7         69.41
2010-Feb-03 02:03:18 1011.700 -3.1 87 -5.0         69.41
2010-Feb-03 03:01:14 1011.500 -3.3 86 -5.3         69.41
2010-Feb-03 04:01:13 1011.000 -3.7 86 -5.7         69.41
2010-Feb-03 05:01:17 1010.200 -3.9 85 -6.1         69.41
2010-Feb-03 06:01:13 1010.000 -4.1 84 -6.4         69.41
2010-Feb-03 07:01:14 1009.700 -4.1 82 -6.7         69.41
2010-Feb-03 08:01:13 1009.500 -5.0 82 -7.6         69.41
2010-Feb-03 09:01:13 1009.600 -4.5 83 -7.0         69.41
2010-Feb-03 10:01:12 1010.000 0.7 82 -2.0         69.41
2010-Feb-03 11:01:12 1009.500 7.9 60 0.6         69.41
2010-Feb-03 12:01:15 1009.000 14.4 31 -2.5         69.41
2010-Feb-03 13:01:13 1008.200 14.6 35 -0.8         69.41
2010-Feb-03 14:01:15 1007.200 19.5 32 2.3         69.41
2010-Feb-03 15:01:11 1006.400 14.9 39 1.0         69.41
2010-Feb-03 16:01:18 1006.300 11.5 47 0.5         69.41
2010-Feb-03 17:01:14 1006.400 10.9 52 1.4         69.41
2010-Feb-03 18:01:16 1006.700 9.4 56 1.0         69.41
2010-Feb-03 19:01:17 1006.900 7.0 64 0.6         69.41
2010-Feb-03 20:01:16 1007.200 5.9 69 0.7         69.41
2010-Feb-03 21:01:13 1006.800 5.7 74 1.4         69.41
2010-Feb-03 22:01:17 1006.800 5.1 77 1.4         69.41
2010-Feb-03 23:01:15 1006.000 4.8 78 1.2         69.41

Temperatura Máxima:19°    Temperatura Mínima:-5°
Presión Máxima:1012.200 Hpa    Presión Mínima:1006.000 Hpa


Volver